Time;durP1;ratioP1;P1;durP2;ratioP2;P2;SDS_P1;SDS_P2;PMS_P1;PMS_P2;Temp;Humidity;BMP_temperature;BMP_pressure;BME280_temperature;BME280_humidity;BME280_pressure;Samples;Min_cycle;Max_cycle;Signal;HPM_P1;HPM_P2
2022/12/30 00:02:27;;;;;;;9.83;2.13;;;;;;;10.93;70.38;100389.78;5083627;28;20239;-66
2022/12/30 00:04:55;;;;;;;10.83;2.03;;;;;;;10.97;70.15;100395.63;5081606;28;20234;-65
2022/12/30 00:07:22;;;;;;;9.73;1.90;;;;;;;10.98;69.82;100384.03;5078460;28;21041;-65
2022/12/30 00:09:53;;;;;;;7.63;1.77;;;;;;;11.00;69.54;100380.22;5076486;28;20210;-66
2022/12/30 00:35:00;;;;;;;10.13;1.83;;;;;;;10.55;70.77;100406.81;5078978;28;20211;-66
2022/12/30 00:37:28;;;;;;;10.30;2.77;;;;;;;10.48;71.28;100397.78;5078065;28;20204;-66
2022/12/30 00:39:59;;;;;;;11.00;2.07;;;;;;;10.37;71.99;100393.53;5081675;28;20200;-66
2022/12/30 00:45:13;;;;;;;7.70;1.83;;;;;;;10.13;74.39;100404.63;5078206;28;20219;-66
2022/12/30 00:47:42;;;;;;;10.73;2.47;;;;;;;10.11;74.82;100414.53;5082570;28;21116;-65
2022/12/30 00:58:29;;;;;;;8.57;1.77;;;;;;;9.78;77.82;100425.69;5080643;28;20211;-66
2022/12/30 01:00:57;;;;;;;6.47;1.40;;;;;;;9.73;77.84;100427.94;5082458;28;20207;-66
2022/12/30 01:03:25;;;;;;;8.83;1.80;;;;;;;9.74;77.43;100427.81;5082563;28;20204;-63
2022/12/30 01:05:53;;;;;;;4.80;1.30;;;;;;;9.77;77.01;100429.31;5084180;28;20703;-64
2022/12/30 01:08:21;;;;;;;8.03;1.97;;;;;;;9.76;77.37;100435.59;5078589;28;20353;-65
2022/12/30 01:10:48;;;;;;;8.53;1.90;;;;;;;9.74;77.20;100438.41;5080665;28;20551;-65
2022/12/30 01:13:16;;;;;;;8.07;1.43;;;;;;;9.79;76.67;100441.44;5079625;28;20907;-65
2022/12/30 01:15:45;;;;;;;8.37;1.73;;;;;;;9.81;76.57;100454.53;5077575;28;20668;-65
2022/12/30 01:18:13;;;;;;;11.20;1.73;;;;;;;9.76;76.69;100454.16;5084781;28;20215;-65
2022/12/30 01:20:41;;;;;;;7.67;2.13;;;;;;;9.74;77.09;100462.22;5084125;28;20680;-65
2022/12/30 01:23:08;;;;;;;7.23;2.20;;;;;;;9.63;77.40;100461.53;5083816;28;20226;-65
2022/12/30 01:25:39;;;;;;;5.47;1.20;;;;;;;9.63;77.70;100464.19;5082574;28;20214;-65
2022/12/30 01:28:07;;;;;;;12.30;2.10;;;;;;;9.64;77.48;100468.50;5082768;28;20215;-65
2022/12/30 01:30:35;;;;;;;10.10;1.50;;;;;;;9.68;77.13;100469.88;5081101;28;20842;-65
2022/12/30 01:33:04;;;;;;;7.77;1.53;;;;;;;9.83;76.36;100471.13;5082176;28;20214;-65
2022/12/30 01:35:33;;;;;;;12.63;2.30;;;;;;;9.88;75.50;100479.47;5082047;28;20259;-64
2022/12/30 01:38:00;;;;;;;11.97;2.20;;;;;;;9.86;75.13;100478.75;5081801;28;20822;-64
2022/12/30 01:40:28;;;;;;;8.53;2.10;;;;;;;9.91;74.43;100473.88;5082256;28;20214;-65
2022/12/30 01:42:56;;;;;;;8.60;2.03;;;;;;;9.97;73.63;100480.41;5079887;28;20246;-64
2022/12/30 01:45:27;;;;;;;12.17;1.97;;;;;;;9.99;73.42;100481.94;5081630;28;20207;-64
2022/12/30 01:47:58;;;;;;;13.17;2.63;;;;;;;10.03;72.91;100490.44;5076950;28;20222;-64
2022/12/30 01:50:34;;;;;;;12.87;2.10;;;;;;;10.07;72.50;100484.72;5073017;28;20701;-66
2022/12/30 01:53:06;;;;;;;15.60;2.93;;;;;;;10.10;71.90;100483.59;5075688;28;20210;-67
2022/12/30 01:55:38;;;;;;;12.03;2.40;;;;;;;10.10;71.98;100492.38;5077692;28;20230;-65
2022/12/30 01:58:11;;;;;;;8.07;1.67;;;;;;;9.99;71.64;100499.66;5078140;28;20206;-64
2022/12/30 02:00:38;;;;;;;9.63;1.83;;;;;;;9.80;72.45;100496.06;5079911;28;20207;-65
2022/12/30 02:03:07;;;;;;;12.23;1.67;;;;;;;9.68;72.60;100501.66;5078839;28;20825;-65
2022/12/30 02:05:40;;;;;;;12.27;1.90;;;;;;;9.59;73.48;100505.97;5079190;28;20664;-65
2022/12/30 02:08:11;;;;;;;10.93;1.70;;;;;;;9.51;73.76;100515.59;5078875;28;20222;-65
2022/12/30 02:10:43;;;;;;;10.87;1.63;;;;;;;9.53;73.90;100513.66;5079844;28;20538;-65
2022/12/30 02:13:13;;;;;;;6.90;1.87;;;;;;;9.56;73.65;100506.28;5080182;28;20339;-65
2022/12/30 02:16:06;;;;;;;9.63;1.97;;;;;;;9.62;74.08;100515.47;5078058;28;20203;-66
2022/12/30 02:18:51;;;;;;;7.77;1.80;;;;;;;9.59;73.81;100516.56;5079884;28;20198;-66
2022/12/30 02:22:03;;;;;;;7.73;1.77;;;;;;;9.61;73.59;100524.38;5079571;28;20202;-66
2022/12/30 02:24:55;;;;;;;10.17;1.73;;;;;;;9.55;73.73;100522.31;5078808;28;20210;-66
2022/12/30 02:27:47;;;;;;;6.90;2.47;;;;;;;9.42;74.53;100530.50;5077772;28;20772;-66
2022/12/30 02:30:20;;;;;;;10.47;2.03;;;;;;;9.37;74.96;100530.94;5074459;28;20318;-66
2022/12/30 02:33:09;;;;;;;11.87;1.87;;;;;;;9.32;75.41;100533.16;5080213;28;20202;-66
2022/12/30 02:35:50;;;;;;;6.30;1.27;;;;;;;9.29;75.73;100533.44;5080960;28;20225;-66
2022/12/30 02:38:28;;;;;;;8.10;1.37;;;;;;;9.31;75.94;100531.50;5078230;28;20215;-66
2022/12/30 02:46:42;;;;;;;12.47;1.83;;;;;;;9.32;76.28;100538.44;5079891;28;20261;-66
2022/12/30 02:49:14;;;;;;;12.60;1.30;;;;;;;9.36;75.46;100533.72;5081193;28;20232;-66
2022/12/30 02:54:31;;;;;;;11.47;1.80;;;;;;;9.26;75.95;100530.22;5077774;28;20598;-66
2022/12/30 02:56:59;;;;;;;8.60;1.33;;;;;;;9.14;76.74;100534.84;5081904;28;20198;-67
2022/12/30 03:05:38;;;;;;;8.73;1.77;;;;;;;9.18;76.79;100519.50;5081041;28;20294;-66
2022/12/30 03:08:22;;;;;;;11.20;1.70;;;;;;;9.19;76.19;100516.72;5077381;28;20230;-67
2022/12/30 03:11:12;;;;;;;6.37;1.33;;;;;;;9.03;76.85;100527.00;5078304;28;20202;-67
2022/12/30 03:13:52;;;;;;;10.03;2.30;;;;;;;8.91;77.31;100533.38;5081328;28;20269;-66
2022/12/30 03:16:26;;;;;;;9.77;1.80;;;;;;;8.83;77.91;100536.72;5081710;28;20657;-65
2022/12/30 03:18:56;;;;;;;9.47;1.50;;;;;;;8.77;77.93;100520.56;5080497;28;20231;-67
2022/12/30 03:21:27;;;;;;;10.17;1.90;;;;;;;8.74;78.04;100518.16;5086165;28;20667;-67
2022/12/30 03:27:07;;;;;;;11.07;1.83;;;;;;;8.62;78.90;100534.13;5082132;28;20313;-66
2022/12/30 03:29:40;;;;;;;9.57;2.20;;;;;;;8.65;79.09;100548.91;5079521;28;20666;-65
2022/12/30 03:32:16;;;;;;;6.87;1.53;;;;;;;8.71;79.21;100551.00;5081807;28;20201;-67
2022/12/30 03:34:44;;;;;;;11.23;2.10;;;;;;;8.78;79.03;100546.88;5082044;28;20209;-67
2022/12/30 03:37:18;;;;;;;13.33;2.00;;;;;;;8.83;78.57;100546.44;5078502;28;20249;-67
2022/12/30 03:39:52;;;;;;;11.47;2.20;;;;;;;8.92;78.08;100550.94;5083423;28;20301;-66
2022/12/30 03:42:22;;;;;;;8.10;1.83;;;;;;;8.91;78.44;100554.53;5081102;28;20221;-66
2022/12/30 03:44:52;;;;;;;7.70;1.67;;;;;;;8.93;78.05;100548.16;5077931;28;20229;-66
2022/12/30 03:47:20;;;;;;;13.80;2.63;;;;;;;8.98;78.20;100547.72;5079683;28;20233;-68
2022/12/30 03:49:48;;;;;;;12.73;2.03;;;;;;;9.04;77.38;100539.28;5078065;28;20321;-67
2022/12/30 03:52:20;;;;;;;7.63;1.50;;;;;;;9.06;77.31;100538.13;5083634;28;20659;-65
2022/12/30 03:54:50;;;;;;;9.53;1.80;;;;;;;9.05;77.01;100530.38;5084947;28;20640;-65
2022/12/30 03:57:19;;;;;;;8.37;1.43;;;;;;;9.01;77.18;100536.88;5084253;28;20220;-65
2022/12/30 03:59:47;;;;;;;14.03;2.20;;;;;;;8.97;77.56;100540.78;5082400;28;20665;-65
2022/12/30 04:02:14;;;;;;;8.60;2.07;;;;;;;8.98;77.83;100532.69;5084039;28;20203;-65
2022/12/30 04:04:43;;;;;;;10.07;1.97;;;;;;;8.97;78.16;100533.66;5082435;28;20987;-65
2022/12/30 04:07:10;;;;;;;15.13;3.13;;;;;;;8.94;78.68;100523.38;5079806;28;20238;-65
2022/12/30 04:09:39;;;;;;;14.37;2.13;;;;;;;8.87;79.59;100521.41;5084814;28;20206;-65
2022/12/30 04:12:07;;;;;;;7.33;2.00;;;;;;;8.91;79.54;100513.06;5082639;28;20214;-65
2022/12/30 04:14:35;;;;;;;15.80;1.77;;;;;;;8.84;80.42;100519.88;5082235;28;20225;-65
2022/12/30 04:17:02;;;;;;;10.00;1.93;;;;;;;8.86;80.61;100522.38;5083485;28;20199;-65
2022/12/30 04:19:30;;;;;;;7.43;1.77;;;;;;;8.79;80.75;100523.91;5082032;28;20214;-65
2022/12/30 04:21:58;;;;;;;14.73;2.03;;;;;;;8.76;81.21;100519.72;5085216;28;20669;-66
2022/12/30 04:24:26;;;;;;;8.37;1.70;;;;;;;8.77;81.06;100529.31;5083783;28;20199;-65
2022/12/30 04:26:55;;;;;;;4.87;1.47;;;;;;;8.75;81.28;100538.34;5087265;28;20214;-65
2022/12/30 04:29:22;;;;;;;6.70;1.93;;;;;;;8.77;81.06;100531.97;5083180;28;20214;-65
2022/12/30 04:31:50;;;;;;;9.97;1.90;;;;;;;8.77;81.12;100547.00;5084872;28;20210;-65
2022/12/30 04:34:18;;;;;;;12.17;2.47;;;;;;;8.81;81.03;100545.75;5084590;28;20840;-65
2022/12/30 04:36:46;;;;;;;9.60;2.13;;;;;;;8.76;81.02;100537.38;5077958;28;20271;-65
2022/12/30 04:39:13;;;;;;;9.73;2.10;;;;;;;8.77;80.73;100536.41;5081587;28;20222;-64
2022/12/30 04:41:41;;;;;;;7.23;1.83;;;;;;;8.79;80.85;100537.13;5081449;28;20286;-65
2022/12/30 04:44:10;;;;;;;7.47;2.10;;;;;;;8.76;80.68;100534.75;5087766;28;20210;-65
2022/12/30 04:46:38;;;;;;;12.13;1.67;;;;;;;8.78;80.22;100532.81;5084191;28;20222;-66
2022/12/30 04:49:06;;;;;;;10.10;1.50;;;;;;;8.71;80.91;100537.78;5080652;28;20242;-65
2022/12/30 04:51:33;;;;;;;6.03;1.87;;;;;;;8.70;80.63;100544.06;5080471;28;20215;-65
2022/12/30 04:54:01;;;;;;;11.37;1.70;;;;;;;8.66;80.59;100530.25;5082600;28;20721;-65
2022/12/30 04:56:29;;;;;;;8.90;2.20;;;;;;;8.62;81.01;100533.28;5081040;28;20213;-66
2022/12/30 04:58:56;;;;;;;9.10;1.77;;;;;;;8.65;80.86;100535.69;5082140;28;20205;-65
2022/12/30 05:01:26;;;;;;;15.17;2.63;;;;;;;8.62;80.83;100539.41;5080417;28;20220;-66
2022/12/30 05:03:54;;;;;;;14.40;2.10;;;;;;;8.58;81.03;100537.19;5075949;28;20214;-64
2022/12/30 05:06:22;;;;;;;9.80;1.97;;;;;;;8.59;80.95;100541.50;5078063;28;20207;-65
2022/12/30 05:08:50;;;;;;;11.33;2.17;;;;;;;8.60;80.91;100553.75;5079830;28;20234;-65
2022/12/30 05:11:17;;;;;;;12.03;2.10;;;;;;;8.58;81.07;100550.41;5086163;28;20224;-65
2022/12/30 05:13:45;;;;;;;12.27;1.90;;;;;;;8.57;81.07;100552.22;5083364;28;20234;-66
2022/12/30 05:16:14;;;;;;;15.40;2.10;;;;;;;8.60;81.12;100556.41;5080549;28;20207;-64
2022/12/30 05:18:43;;;;;;;16.03;2.40;;;;;;;8.75;80.53;100567.44;5085949;28;20221;-65
2022/12/30 05:21:11;;;;;;;12.17;2.20;;;;;;;8.81;79.84;100564.25;5081502;28;20211;-65
2022/12/30 05:26:23;;;;;;;10.33;2.87;;;;;;;8.91;78.84;100565.13;5084349;28;20206;-65
2022/12/30 05:28:51;;;;;;;9.80;2.80;;;;;;;8.90;78.20;100560.78;5082162;28;20225;-66
2022/12/30 05:31:20;;;;;;;10.10;2.13;;;;;;;8.86;78.88;100562.88;5085460;28;20611;-66
2022/12/30 05:33:49;;;;;;;5.87;1.83;;;;;;;8.93;78.66;100563.19;5085575;28;20222;-67
2022/12/30 05:36:17;;;;;;;10.10;3.33;;;;;;;8.92;78.59;100550.94;5084937;28;20309;-66
2022/12/30 05:38:45;;;;;;;11.87;2.00;;;;;;;9.02;78.44;100552.63;5085724;28;20201;-66
2022/12/30 05:41:13;;;;;;;9.53;1.97;;;;;;;8.98;78.67;100561.78;5085037;28;20217;-67
2022/12/30 05:43:47;;;;;;;7.40;1.73;;;;;;;8.98;78.62;100567.09;5084644;28;20301;-65
2022/12/30 05:46:15;;;;;;;6.67;1.57;;;;;;;8.88;79.19;100570.69;5079343;28;20210;-66
2022/12/30 05:48:43;;;;;;;9.07;2.20;;;;;;;8.80;79.74;100566.06;5086403;28;20892;-66
2022/12/30 05:51:12;;;;;;;5.13;1.60;;;;;;;8.79;80.10;100559.13;5079897;28;20293;-66
2022/12/30 05:53:41;;;;;;;9.70;2.13;;;;;;;8.70;80.55;100561.72;5081453;28;20241;-65
2022/12/30 05:56:08;;;;;;;6.77;2.00;;;;;;;8.65;81.38;100556.81;5081418;28;20210;-65
2022/12/30 05:58:36;;;;;;;9.67;2.57;;;;;;;8.65;81.56;100564.75;5078620;28;22004;-66
2022/12/30 06:01:04;;;;;;;9.27;2.03;;;;;;;8.65;81.87;100565.59;5083103;28;20318;-66
2022/12/30 06:03:46;;;;;;;14.17;2.23;;;;;;;8.66;82.32;100575.19;5076987;28;20209;-66
2022/12/30 06:06:15;;;;;;;8.77;2.00;;;;;;;8.64;82.62;100574.50;5083471;28;20218;-66
2022/12/30 06:08:43;;;;;;;5.97;1.67;;;;;;;8.65;82.74;100578.81;5079981;28;20346;-67
2022/12/30 06:11:11;;;;;;;12.67;2.20;;;;;;;8.76;82.34;100577.03;5079379;28;20210;-67
2022/12/30 06:13:38;;;;;;;7.00;2.13;;;;;;;8.80;82.22;100583.72;5079515;28;21540;-66
2022/12/30 06:16:07;;;;;;;6.50;1.77;;;;;;;8.69;82.85;100576.75;5084327;28;20298;-67
2022/12/30 06:18:34;;;;;;;18.40;2.87;;;;;;;8.60;83.70;100566.97;5079220;28;20206;-67
2022/12/30 06:21:02;;;;;;;8.13;1.70;;;;;;;8.56;84.08;100576.97;5077964;28;20206;-67
2022/12/30 06:23:32;;;;;;;8.83;2.00;;;;;;;8.58;84.25;100567.09;5077823;28;20207;-66
2022/12/30 06:26:00;;;;;;;11.03;2.40;;;;;;;8.58;84.11;100566.25;5081267;28;20198;-65
2022/12/30 06:28:29;;;;;;;10.17;1.70;;;;;;;8.59;84.11;100558.19;5077637;28;20241;-66
2022/12/30 06:30:57;;;;;;;8.90;2.20;;;;;;;8.56;84.17;100552.34;5081585;28;20210;-65
2022/12/30 06:33:25;;;;;;;9.50;2.37;;;;;;;8.55;84.00;100556.78;5078775;28;20224;-66
2022/12/30 06:35:53;;;;;;;12.80;2.83;;;;;;;8.44;84.23;100564.81;5076031;28;20206;-66
2022/12/30 06:38:20;;;;;;;14.10;2.40;;;;;;;8.36;85.15;100558.50;5081454;28;20211;-66
2022/12/30 06:40:49;;;;;;;8.47;1.83;;;;;;;8.29;85.11;100564.28;5079274;28;20214;-65
2022/12/30 06:43:17;;;;;;;11.53;2.27;;;;;;;8.23;85.14;100558.69;5077451;28;20293;-66
2022/12/30 06:45:45;;;;;;;7.23;1.93;;;;;;;8.15;85.94;100553.22;5075363;28;20224;-64
2022/12/30 06:48:13;;;;;;;8.40;1.90;;;;;;;8.04;86.73;100554.13;5077792;28;20342;-65
2022/12/30 06:50:41;;;;;;;7.43;1.90;;;;;;;8.02;86.88;100553.41;5078972;28;20212;-64
2022/12/30 06:53:09;;;;;;;6.37;1.63;;;;;;;7.99;86.72;100550.22;5078685;28;20213;-65
2022/12/30 06:55:37;;;;;;;8.20;2.17;;;;;;;7.90;87.19;100552.66;5077763;28;20211;-65
2022/12/30 06:58:07;;;;;;;8.77;1.60;;;;;;;7.91;87.35;100556.97;5074931;28;20214;-65
2022/12/30 07:00:37;;;;;;;7.63;2.30;;;;;;;7.89;87.60;100551.00;5077095;28;20327;-65
2022/12/30 07:03:04;;;;;;;6.77;1.83;;;;;;;7.92;87.01;100550.72;5076380;28;20694;-65
2022/12/30 07:05:32;;;;;;;14.80;3.20;;;;;;;7.94;86.53;100555.88;5076085;28;20206;-65
2022/12/30 07:08:00;;;;;;;8.30;2.27;;;;;;;7.90;86.40;100557.94;5075871;28;20643;-64
2022/12/30 07:10:28;;;;;;;10.77;2.37;;;;;;;7.91;86.01;100556.16;5079250;28;20263;-65
2022/12/30 07:12:56;;;;;;;8.13;1.90;;;;;;;7.87;85.90;100550.28;5079414;28;20246;-66
2022/12/30 07:15:25;;;;;;;9.80;2.30;;;;;;;7.91;85.77;100558.78;5079692;28;20206;-66
2022/12/30 07:17:53;;;;;;;7.17;2.33;;;;;;;7.88;85.19;100554.59;5079442;28;20220;-64
2022/12/30 07:20:21;;;;;;;6.77;2.57;;;;;;;7.85;85.53;100548.72;5078515;28;20249;-65
2022/12/30 07:22:48;;;;;;;8.30;2.50;;;;;;;7.82;85.79;100543.72;5077602;28;20210;-65
2022/12/30 07:25:16;;;;;;;7.47;2.77;;;;;;;7.76;86.16;100542.41;5079609;28;20644;-65
2022/12/30 07:27:44;;;;;;;9.03;2.60;;;;;;;7.68;86.63;100534.28;5081282;28;20243;-67
2022/12/30 07:30:13;;;;;;;10.70;2.83;;;;;;;7.73;86.54;100550.59;5076612;28;20233;-61
2022/12/30 07:32:42;;;;;;;8.93;3.50;;;;;;;7.80;86.18;100541.19;5077257;28;20452;-61
2022/12/30 07:35:11;;;;;;;8.90;2.90;;;;;;;7.75;86.58;100547.81;5076806;28;20218;-59
2022/12/30 07:37:38;;;;;;;5.77;2.20;;;;;;;7.78;86.58;100547.56;5081687;28;20209;-59
2022/12/30 07:40:07;;;;;;;9.67;2.90;;;;;;;7.79;85.96;100547.44;5083003;28;20209;-60
2022/12/30 07:42:35;;;;;;;8.30;2.60;;;;;;;7.81;85.91;100548.16;5078187;28;20205;-60
2022/12/30 07:45:03;;;;;;;6.00;2.60;;;;;;;7.90;85.51;100560.59;5076742;28;20732;-60
2022/12/30 07:47:32;;;;;;;7.73;2.70;;;;;;;7.96;84.89;100555.75;5076001;28;20666;-59
2022/12/30 07:50:01;;;;;;;9.83;2.77;;;;;;;7.99;84.72;100560.78;5074750;28;20236;-61
2022/12/30 07:52:29;;;;;;;8.07;2.97;;;;;;;7.98;84.96;100556.47;5079808;28;20706;-60
2022/12/30 07:54:57;;;;;;;10.93;3.20;;;;;;;8.01;84.83;100562.31;5078474;28;20295;-59
2022/12/30 07:57:25;;;;;;;11.10;3.80;;;;;;;7.98;85.25;100561.75;5077379;28;20211;-60
2022/12/30 07:59:53;;;;;;;12.87;3.47;;;;;;;8.01;85.13;100564.94;5076270;28;20904;-61
2022/12/30 08:02:21;;;;;;;7.80;2.93;;;;;;;8.02;85.28;100566.63;5076927;28;20588;-59
2022/12/30 08:04:49;;;;;;;8.27;3.53;;;;;;;8.01;85.28;100561.47;5077891;28;20209;-60
2022/12/30 08:07:21;;;;;;;9.53;3.60;;;;;;;8.00;85.82;100557.19;5082186;28;20634;-58
2022/12/30 08:09:49;;;;;;;12.13;3.27;;;;;;;8.01;86.17;100564.09;5071709;28;20229;-59
2022/12/30 08:12:16;;;;;;;8.83;3.90;;;;;;;8.14;85.84;100554.19;5076855;28;20255;-58
2022/12/30 08:14:44;;;;;;;9.07;4.13;;;;;;;8.18;85.87;100555.63;5079014;28;20536;-60
2022/12/30 08:17:12;;;;;;;9.00;3.50;;;;;;;8.31;85.30;100550.97;5077464;28;20213;-59
2022/12/30 08:19:39;;;;;;;11.60;3.87;;;;;;;8.32;84.98;100542.09;5079486;28;20209;-61
2022/12/30 08:22:07;;;;;;;7.53;4.20;;;;;;;8.44;84.92;100532.28;5074107;28;20650;-60
2022/12/30 08:24:36;;;;;;;11.67;3.97;;;;;;;8.43;84.98;100528.78;5077305;28;20209;-61
2022/12/30 08:27:04;;;;;;;8.90;4.23;;;;;;;8.46;85.28;100527.66;5078411;28;20325;-60
2022/12/30 08:29:32;;;;;;;10.93;4.80;;;;;;;8.50;85.63;100527.28;5075774;28;20597;-58
2022/12/30 08:32:00;;;;;;;10.10;4.57;;;;;;;8.60;85.36;100520.22;5076400;28;20207;-60
2022/12/30 08:34:28;;;;;;;13.67;4.13;;;;;;;8.67;84.78;100513.44;5075745;28;20264;-60
2022/12/30 08:36:55;;;;;;;12.33;4.83;;;;;;;8.64;85.14;100507.56;5078962;28;20765;-59
2022/12/30 08:39:24;;;;;;;11.50;4.23;;;;;;;8.73;85.47;100487.41;5076628;28;20652;-61
2022/12/30 08:41:55;;;;;;;6.97;3.73;;;;;;;8.82;84.54;100486.59;5083910;28;20201;-59
2022/12/30 08:44:24;;;;;;;7.90;3.70;;;;;;;8.86;84.22;100485.38;5080763;28;20211;-59
2022/12/30 08:46:52;;;;;;;8.30;4.40;;;;;;;8.92;83.82;100484.81;5082992;28;20655;-59
2022/12/30 08:49:20;;;;;;;7.90;3.73;;;;;;;8.95;83.92;100480.09;5077681;28;20659;-60
2022/12/30 08:51:48;;;;;;;12.83;4.73;;;;;;;8.95;84.00;100477.44;5082300;28;20705;-60
2022/12/30 08:54:17;;;;;;;10.17;4.40;;;;;;;8.98;83.91;100477.16;5077558;28;20836;-58
2022/12/30 08:56:48;;;;;;;6.73;4.17;;;;;;;9.08;83.97;100466.59;5075607;28;20234;-60
2022/12/30 08:59:17;;;;;;;9.30;5.07;;;;;;;9.19;83.62;100468.25;5078052;28;20206;-59
2022/12/30 09:01:45;;;;;;;7.73;4.40;;;;;;;9.13;84.12;100463.53;5080829;28;20199;-60
2022/12/30 09:04:13;;;;;;;10.13;5.07;;;;;;;9.13;84.14;100459.09;5080126;28;20273;-60
2022/12/30 09:06:42;;;;;;;10.53;5.10;;;;;;;9.19;84.16;100465.63;5083804;28;20562;-59
2022/12/30 09:09:13;;;;;;;12.80;4.90;;;;;;;9.21;84.52;100461.88;5075306;28;20206;-59
2022/12/30 09:11:41;;;;;;;7.73;4.10;;;;;;;9.26;84.40;100467.56;5077002;28;20317;-60
2022/12/30 09:14:11;;;;;;;8.73;4.97;;;;;;;9.34;84.43;100464.22;5078828;28;20234;-60
2022/12/30 09:16:41;;;;;;;10.13;5.03;;;;;;;9.50;83.36;100461.03;5087055;28;20289;-60
2022/12/30 09:19:09;;;;;;;8.33;4.50;;;;;;;9.54;82.94;100446.50;5081605;28;20211;-60
2022/12/30 09:21:44;;;;;;;8.77;4.67;;;;;;;9.55;83.14;100442.88;5085845;28;20202;-62
2022/12/30 09:24:12;;;;;;;8.50;4.43;;;;;;;9.61;83.44;100440.50;5075671;28;20207;-61
2022/12/30 09:26:40;;;;;;;8.37;4.60;;;;;;;9.88;82.29;100433.59;5081149;28;20203;-60
2022/12/30 09:29:08;;;;;;;7.20;3.27;;;;;;;9.96;81.01;100426.59;5083030;28;20661;-61
2022/12/30 09:31:35;;;;;;;7.73;3.97;;;;;;;10.08;80.54;100419.31;5080387;28;20952;-61
2022/12/30 09:34:05;;;;;;;7.87;4.17;;;;;;;10.02;80.52;100409.31;5080750;28;20267;-61
2022/12/30 09:36:33;;;;;;;7.67;3.73;;;;;;;10.10;80.19;100402.28;5085906;28;20214;-61
2022/12/30 09:39:00;;;;;;;9.90;4.87;;;;;;;10.03;80.00;100395.88;5086285;28;20222;-62
2022/12/30 09:44:38;;;;;;;8.87;3.80;;;;;;;9.95;80.12;100398.44;5078318;28;20803;-63
2022/12/30 09:47:21;;;;;;;9.73;3.60;;;;;;;10.01;79.77;100394.38;5081119;28;20203;-62
2022/12/30 09:49:56;;;;;;;7.90;3.53;;;;;;;10.16;78.56;100391.09;5083351;28;22416;-60
2022/12/30 09:52:29;;;;;;;12.03;3.73;;;;;;;10.20;77.75;100386.38;5080324;28;20650;-61
2022/12/30 09:55:01;;;;;;;10.70;3.40;;;;;;;10.24;77.67;100389.56;5079869;28;20212;-61
2022/12/30 09:57:33;;;;;;;10.87;4.10;;;;;;;10.36;77.49;100389.22;5079155;28;20201;-60
2022/12/30 10:00:07;;;;;;;8.63;4.23;;;;;;;10.39;76.23;100385.41;5079313;28;20206;-61
2022/12/30 10:02:49;;;;;;;7.23;3.20;;;;;;;10.33;76.37;100381.56;5075288;28;20211;-60
2022/12/30 10:05:34;;;;;;;9.20;3.30;;;;;;;10.40;76.20;100371.19;5078178;28;20218;-61
2022/12/30 10:08:15;;;;;;;6.23;2.70;;;;;;;10.43;76.08;100376.19;5079520;28;20206;-60
2022/12/30 10:10:48;;;;;;;5.93;2.20;;;;;;;10.51;75.47;100369.16;5079639;28;20793;-60
2022/12/30 10:13:21;;;;;;;7.73;2.23;;;;;;;10.63;74.68;100374.25;5075021;28;20249;-61
2022/12/30 10:15:54;;;;;;;3.63;1.47;;;;;;;10.91;73.73;100366.03;5083231;28;20208;-61
2022/12/30 10:18:49;;;;;;;5.20;2.00;;;;;;;11.13;72.56;100366.56;5078303;28;20831;-59
2022/12/30 10:21:32;;;;;;;4.97;1.93;;;;;;;11.45;70.96;100363.31;5076050;28;20584;-59
2022/12/30 10:24:16;;;;;;;4.93;2.10;;;;;;;11.35;70.26;100363.41;5078448;28;20201;-60
2022/12/30 10:26:47;;;;;;;6.27;2.30;;;;;;;11.07;71.58;100348.63;5078009;28;20233;-60
2022/12/30 10:29:18;;;;;;;3.83;1.97;;;;;;;10.81;72.76;100348.56;5080099;28;20227;-60
2022/12/30 10:31:48;;;;;;;3.17;1.60;;;;;;;10.68;73.11;100327.72;5080621;28;20223;-60
2022/12/30 10:34:18;;;;;;;4.93;1.80;;;;;;;10.72;73.45;100315.00;5084773;28;20292;-59
2022/12/30 10:36:54;;;;;;;4.57;2.07;;;;;;;10.94;72.21;100312.69;5079848;28;20210;-61
2022/12/30 10:39:23;;;;;;;7.90;1.83;;;;;;;11.02;71.65;100325.19;5081000;28;20205;-60
2022/12/30 10:42:12;;;;;;;7.00;2.00;;;;;;;11.05;71.42;100326.69;5079330;28;20205;-62
2022/12/30 10:44:51;;;;;;;6.80;2.10;;;;;;;11.10;71.08;100319.94;5081265;28;20211;-61
2022/12/30 10:47:31;;;;;;;5.37;1.50;;;;;;;10.97;71.54;100308.06;5082296;28;20303;-60
2022/12/30 10:50:26;;;;;;;5.27;1.73;;;;;;;10.93;72.02;100305.72;5079761;28;20201;-60
2022/12/30 10:52:56;;;;;;;3.57;1.40;;;;;;;10.98;71.47;100296.47;5078805;28;20586;-60
2022/12/30 10:55:30;;;;;;;9.93;1.50;;;;;;;10.87;71.16;100302.84;5078519;28;20206;-62
2022/12/30 10:58:16;;;;;;;4.07;1.80;;;;;;;10.99;70.59;100293.66;5080080;28;20225;-62
2022/12/30 11:00:44;;;;;;;2.90;1.40;;;;;;;10.99;70.55;100298.97;5080776;28;20208;-61
2022/12/30 11:03:20;;;;;;;3.30;1.30;;;;;;;11.04;69.93;100291.38;5081645;28;20249;-60
2022/12/30 11:05:48;;;;;;;5.43;1.30;;;;;;;10.98;69.73;100301.78;5081080;28;20205;-59
2022/12/30 11:08:25;;;;;;;3.83;1.30;;;;;;;11.02;70.09;100297.81;5080419;28;20211;-60
2022/12/30 11:11:00;;;;;;;5.10;1.20;;;;;;;11.05;70.09;100284.25;5078323;28;20244;-62
2022/12/30 11:16:13;;;;;;;5.67;1.10;;;;;;;11.22;68.93;100286.00;5075687;28;20217;-60
2022/12/30 11:18:45;;;;;;;3.00;1.13;;;;;;;11.26;68.38;100280.22;5078872;28;20214;-60
2022/12/30 11:21:13;;;;;;;3.43;1.30;;;;;;;11.20;69.10;100283.50;5075761;28;20666;-61
2022/12/30 11:23:43;;;;;;;6.03;1.30;;;;;;;10.99;68.98;100268.97;5077484;28;20816;-62
2022/12/30 11:26:22;;;;;;;4.73;0.93;;;;;;;10.74;70.13;100279.38;5076524;28;20212;-61
2022/12/30 11:28:53;;;;;;;3.57;0.90;;;;;;;10.44;71.79;100255.94;5074864;28;20306;-61
2022/12/30 11:31:22;;;;;;;4.37;1.13;;;;;;;10.46;71.82;100248.66;5078583;28;20230;-60
2022/12/30 11:33:52;;;;;;;3.57;1.30;;;;;;;10.39;72.44;100248.41;5080049;28;20209;-62
2022/12/30 11:36:32;;;;;;;3.33;1.17;;;;;;;10.28;72.76;100250.47;5076762;28;20209;-61
2022/12/30 11:39:25;;;;;;;3.20;1.30;;;;;;;10.27;72.36;100259.41;5075572;28;20730;-61
2022/12/30 11:41:54;;;;;;;3.03;1.20;;;;;;;10.20;73.10;100245.94;5074768;28;20200;-62
2022/12/30 11:44:24;;;;;;;6.60;1.30;;;;;;;10.15;73.28;100226.97;5077980;28;20310;-62
2022/12/30 11:46:54;;;;;;;3.30;1.03;;;;;;;10.17;73.24;100211.75;5078001;28;20207;-60
2022/12/30 11:49:28;;;;;;;5.73;1.27;;;;;;;10.14;73.64;100206.75;5077585;28;20295;-60
2022/12/30 11:51:58;;;;;;;3.77;1.10;;;;;;;10.12;73.34;100206.06;5077411;28;20234;-60
2022/12/30 11:54:31;;;;;;;4.00;1.23;;;;;;;10.10;73.43;100195.63;5072819;28;20234;-61
2022/12/30 11:57:01;;;;;;;5.13;1.10;;;;;;;10.18;73.38;100179.00;5077089;28;20544;-61
2022/12/30 11:59:33;;;;;;;4.27;1.70;;;;;;;10.14;73.31;100181.09;5075557;28;20204;-60
2022/12/30 12:02:05;;;;;;;4.63;1.50;;;;;;;10.09;74.14;100170.13;5076626;28;20221;-62
2022/12/30 12:04:37;;;;;;;9.93;1.80;;;;;;;10.15;73.79;100172.16;5079227;28;20203;-62
2022/12/30 12:07:06;;;;;;;5.50;1.63;;;;;;;10.21;73.55;100164.59;5077127;28;20223;-60
2022/12/30 12:09:40;;;;;;;5.53;1.70;;;;;;;10.24;73.50;100159.84;5076010;28;20283;-58
2022/12/30 12:12:12;;;;;;;5.37;1.97;;;;;;;10.25;73.73;100160.69;5073481;28;20226;-60
2022/12/30 12:14:56;;;;;;;3.30;1.90;;;;;;;10.37;73.44;100154.16;5079873;28;20316;-59
2022/12/30 12:17:34;;;;;;;4.13;1.43;;;;;;;10.37;73.38;100154.16;5082724;28;20322;-60
2022/12/30 12:20:10;;;;;;;9.20;2.03;;;;;;;10.42;73.34;100142.09;5079516;28;20210;-60
2022/12/30 12:22:54;;;;;;;5.03;2.00;;;;;;;10.42;73.77;100143.91;5082172;28;20199;-59
2022/12/30 12:25:27;;;;;;;6.17;1.97;;;;;;;10.41;73.56;100142.25;5082618;28;20202;-59
2022/12/30 12:27:55;;;;;;;4.70;1.73;;;;;;;10.36;73.69;100142.72;5082566;28;20211;-60
2022/12/30 12:30:23;;;;;;;4.23;1.90;;;;;;;10.40;73.82;100127.31;5080010;28;20203;-59
2022/12/30 12:33:08;;;;;;;4.90;1.80;;;;;;;10.44;73.97;100134.00;5075298;28;20221;-60
2022/12/30 12:35:45;;;;;;;3.50;1.60;;;;;;;10.42;74.12;100117.41;5075425;28;20211;-60
2022/12/30 12:38:29;;;;;;;4.27;1.90;;;;;;;10.48;73.33;100116.78;5076777;28;20204;-60
2022/12/30 12:41:11;;;;;;;4.47;2.03;;;;;;;10.44;73.30;100115.44;5076962;28;20225;-61
2022/12/30 12:43:53;;;;;;;3.60;1.70;;;;;;;10.45;72.64;100104.69;5076853;28;20200;-59
2022/12/30 12:46:34;;;;;;;3.50;1.30;;;;;;;10.45;71.74;100082.66;5080962;28;20606;-61
2022/12/30 12:49:32;;;;;;;6.13;1.40;;;;;;;10.43;71.66;100084.63;5083861;28;20199;-61